Terminal Aerodrome Forecast
Issued by NWS

Home | Current Version | Previous Version | Text Only | Print | Product List | Glossary On
Versions: 1 2 3 4 5 6 7 8 9 10 11 12 13 14 15 16 17 18 19 20 21
842
FTUS42 KFFC 261127
TAFFTY
TAF
KFTY 261127Z 2612/2712 VRB03KT P6SM SCT250
     FM261300 03003KT P6SM SKC
     FM261600 05004KT P6SM SCT040 BKN250
      TEMPO 2620/2623 5SM TSRA BKN050CB
     FM270100 10005KT P6SM FEW080
     FM270900 12004KT P6SM SCT015=

USA.gov is the U.S. government's official web portal to all federal, state and local government web resources and services.